sensor_id;sensor_type;location;lat;lon;timestamp;P1;durP1;ratioP1;P2;durP2;ratioP2
4049;SDS011;2039;50.894;6.888;2023-11-21T00:01:17;32.93;;;5.53;;
4049;SDS011;2039;50.894;6.888;2023-11-21T00:03:43;29.87;;;5.17;;
4049;SDS011;2039;50.894;6.888;2023-11-21T00:06:09;30.60;;;5.35;;
4049;SDS011;2039;50.894;6.888;2023-11-21T00:08:35;30.63;;;5.57;;
4049;SDS011;2039;50.894;6.888;2023-11-21T00:11:01;34.42;;;6.18;;
4049;SDS011;2039;50.894;6.888;2023-11-21T00:13:27;31.43;;;5.60;;
4049;SDS011;2039;50.894;6.888;2023-11-21T00:15:53;32.20;;;7.00;;
4049;SDS011;2039;50.894;6.888;2023-11-21T00:18:19;31.48;;;6.25;;
4049;SDS011;2039;50.894;6.888;2023-11-21T00:20:45;28.98;;;5.50;;
4049;SDS011;2039;50.894;6.888;2023-11-21T00:23:11;35.53;;;5.50;;
4049;SDS011;2039;50.894;6.888;2023-11-21T00:25:37;35.73;;;7.63;;
4049;SDS011;2039;50.894;6.888;2023-11-21T00:28:02;30.13;;;6.10;;
4049;SDS011;2039;50.894;6.888;2023-11-21T00:30:28;31.50;;;5.87;;
4049;SDS011;2039;50.894;6.888;2023-11-21T00:32:55;33.70;;;5.35;;
4049;SDS011;2039;50.894;6.888;2023-11-21T00:35:21;31.93;;;6.30;;
4049;SDS011;2039;50.894;6.888;2023-11-21T00:37:46;30.17;;;5.60;;
4049;SDS011;2039;50.894;6.888;2023-11-21T00:40:14;32.63;;;6.20;;
4049;SDS011;2039;50.894;6.888;2023-11-21T00:42:40;31.47;;;5.87;;
4049;SDS011;2039;50.894;6.888;2023-11-21T00:45:07;34.58;;;6.00;;
4049;SDS011;2039;50.894;6.888;2023-11-21T00:47:33;37.78;;;4.90;;
4049;SDS011;2039;50.894;6.888;2023-11-21T00:49:58;29.50;;;6.20;;
4049;SDS011;2039;50.894;6.888;2023-11-21T00:52:24;31.30;;;5.13;;
4049;SDS011;2039;50.894;6.888;2023-11-21T00:54:50;29.93;;;5.93;;
4049;SDS011;2039;50.894;6.888;2023-11-21T00:57:15;33.10;;;6.30;;
4049;SDS011;2039;50.894;6.888;2023-11-21T00:59:41;31.20;;;6.30;;
4049;SDS011;2039;50.894;6.888;2023-11-21T01:02:07;33.10;;;6.83;;
4049;SDS011;2039;50.894;6.888;2023-11-21T01:04:35;35.15;;;8.20;;
4049;SDS011;2039;50.894;6.888;2023-11-21T01:07:01;33.70;;;7.30;;
4049;SDS011;2039;50.894;6.888;2023-11-21T01:09:27;35.60;;;7.83;;
4049;SDS011;2039;50.894;6.888;2023-11-21T01:11:53;38.80;;;7.43;;
4049;SDS011;2039;50.894;6.888;2023-11-21T01:14:19;33.63;;;8.33;;
4049;SDS011;2039;50.894;6.888;2023-11-21T01:16:44;35.47;;;7.50;;
4049;SDS011;2039;50.894;6.888;2023-11-21T01:19:10;34.17;;;8.20;;
4049;SDS011;2039;50.894;6.888;2023-11-21T01:21:36;37.03;;;8.60;;
4049;SDS011;2039;50.894;6.888;2023-11-21T01:24:02;35.87;;;8.43;;
4049;SDS011;2039;50.894;6.888;2023-11-21T01:26:28;34.58;;;7.78;;
4049;SDS011;2039;50.894;6.888;2023-11-21T01:29:12;37.70;;;8.27;;
4049;SDS011;2039;50.894;6.888;2023-11-21T01:31:38;36.58;;;9.50;;
4049;SDS011;2039;50.894;6.888;2023-11-21T01:34:04;36.73;;;8.67;;
4049;SDS011;2039;50.894;6.888;2023-11-21T01:36:30;36.30;;;9.77;;
4049;SDS011;2039;50.894;6.888;2023-11-21T01:38:59;41.17;;;9.43;;
4049;SDS011;2039;50.894;6.888;2023-11-21T01:41:25;36.25;;;9.32;;
4049;SDS011;2039;50.894;6.888;2023-11-21T01:43:52;36.30;;;8.20;;
4049;SDS011;2039;50.894;6.888;2023-11-21T01:46:19;37.05;;;8.48;;
4049;SDS011;2039;50.894;6.888;2023-11-21T01:48:45;36.47;;;8.88;;
4049;SDS011;2039;50.894;6.888;2023-11-21T01:51:13;36.60;;;9.60;;
4049;SDS011;2039;50.894;6.888;2023-11-21T01:53:38;37.10;;;9.30;;
4049;SDS011;2039;50.894;6.888;2023-11-21T01:56:05;32.60;;;8.43;;
4049;SDS011;2039;50.894;6.888;2023-11-21T01:58:33;36.13;;;8.85;;
4049;SDS011;2039;50.894;6.888;2023-11-21T02:00:58;35.73;;;9.50;;
4049;SDS011;2039;50.894;6.888;2023-11-21T02:03:24;36.67;;;9.97;;
4049;SDS011;2039;50.894;6.888;2023-11-21T02:05:51;35.42;;;9.55;;
4049;SDS011;2039;50.894;6.888;2023-11-21T02:08:18;36.40;;;9.23;;
4049;SDS011;2039;50.894;6.888;2023-11-21T02:10:44;36.22;;;9.88;;
4049;SDS011;2039;50.894;6.888;2023-11-21T02:13:30;46.35;;;10.55;;
4049;SDS011;2039;50.894;6.888;2023-11-21T02:15:59;41.28;;;10.07;;
4049;SDS011;2039;50.894;6.888;2023-11-21T02:18:26;35.28;;;8.70;;
4049;SDS011;2039;50.894;6.888;2023-11-21T02:20:54;41.10;;;10.35;;
4049;SDS011;2039;50.894;6.888;2023-11-21T02:23:20;35.95;;;9.65;;
4049;SDS011;2039;50.894;6.888;2023-11-21T02:25:48;36.53;;;10.38;;
4049;SDS011;2039;50.894;6.888;2023-11-21T02:28:14;38.50;;;10.50;;
4049;SDS011;2039;50.894;6.888;2023-11-21T02:30:41;35.30;;;9.50;;
4049;SDS011;2039;50.894;6.888;2023-11-21T02:33:07;42.17;;;12.43;;
4049;SDS011;2039;50.894;6.888;2023-11-21T02:35:33;37.53;;;10.10;;
4049;SDS011;2039;50.894;6.888;2023-11-21T02:38:00;40.30;;;10.18;;
4049;SDS011;2039;50.894;6.888;2023-11-21T02:40:25;38.00;;;9.90;;
4049;SDS011;2039;50.894;6.888;2023-11-21T02:42:51;42.03;;;9.73;;
4049;SDS011;2039;50.894;6.888;2023-11-21T02:45:18;36.90;;;9.43;;
4049;SDS011;2039;50.894;6.888;2023-11-21T02:47:45;33.85;;;8.70;;
4049;SDS011;2039;50.894;6.888;2023-11-21T02:50:12;36.08;;;10.35;;
4049;SDS011;2039;50.894;6.888;2023-11-21T02:52:37;34.07;;;9.63;;
4049;SDS011;2039;50.894;6.888;2023-11-21T02:55:05;38.28;;;9.32;;
4049;SDS011;2039;50.894;6.888;2023-11-21T02:57:32;33.65;;;9.85;;
4049;SDS011;2039;50.894;6.888;2023-11-21T02:59:58;40.42;;;10.38;;
4049;SDS011;2039;50.894;6.888;2023-11-21T03:02:25;38.70;;;10.57;;
4049;SDS011;2039;50.894;6.888;2023-11-21T03:04:51;35.92;;;9.55;;
4049;SDS011;2039;50.894;6.888;2023-11-21T03:07:17;36.50;;;9.67;;
4049;SDS011;2039;50.894;6.888;2023-11-21T03:09:44;37.17;;;9.57;;
4049;SDS011;2039;50.894;6.888;2023-11-21T03:12:14;37.28;;;9.57;;
4049;SDS011;2039;50.894;6.888;2023-11-21T03:14:40;33.85;;;9.00;;
4049;SDS011;2039;50.894;6.888;2023-11-21T03:17:06;41.63;;;9.80;;
4049;SDS011;2039;50.894;6.888;2023-11-21T03:19:32;35.37;;;9.57;;
4049;SDS011;2039;50.894;6.888;2023-11-21T03:21:57;37.87;;;10.00;;
4049;SDS011;2039;50.894;6.888;2023-11-21T03:24:23;41.55;;;10.40;;
4049;SDS011;2039;50.894;6.888;2023-11-21T03:26:50;37.63;;;10.43;;
4049;SDS011;2039;50.894;6.888;2023-11-21T03:29:16;34.30;;;8.52;;
4049;SDS011;2039;50.894;6.888;2023-11-21T03:31:41;33.70;;;8.17;;
4049;SDS011;2039;50.894;6.888;2023-11-21T03:34:10;37.70;;;9.53;;
4049;SDS011;2039;50.894;6.888;2023-11-21T03:36:40;37.53;;;9.35;;
4049;SDS011;2039;50.894;6.888;2023-11-21T03:39:06;39.53;;;9.25;;
4049;SDS011;2039;50.894;6.888;2023-11-21T03:41:32;36.13;;;9.53;;
4049;SDS011;2039;50.894;6.888;2023-11-21T03:43:59;34.65;;;8.80;;
4049;SDS011;2039;50.894;6.888;2023-11-21T03:46:24;35.00;;;8.37;;
4049;SDS011;2039;50.894;6.888;2023-11-21T03:48:50;38.30;;;10.27;;
4049;SDS011;2039;50.894;6.888;2023-11-21T03:51:16;36.07;;;9.40;;
4049;SDS011;2039;50.894;6.888;2023-11-21T03:53:42;39.00;;;11.63;;
4049;SDS011;2039;50.894;6.888;2023-11-21T03:56:07;35.70;;;9.00;;
4049;SDS011;2039;50.894;6.888;2023-11-21T03:58:33;34.50;;;8.85;;
4049;SDS011;2039;50.894;6.888;2023-11-21T04:00:59;38.00;;;9.80;;
4049;SDS011;2039;50.894;6.888;2023-11-21T04:03:25;35.77;;;9.80;;
4049;SDS011;2039;50.894;6.888;2023-11-21T04:05:50;37.67;;;9.50;;
4049;SDS011;2039;50.894;6.888;2023-11-21T04:08:16;36.70;;;9.53;;
4049;SDS011;2039;50.894;6.888;2023-11-21T04:10:42;41.47;;;9.90;;
4049;SDS011;2039;50.894;6.888;2023-11-21T04:13:07;34.27;;;9.70;;
4049;SDS011;2039;50.894;6.888;2023-11-21T04:15:33;36.47;;;9.70;;
4049;SDS011;2039;50.894;6.888;2023-11-21T04:17:59;33.23;;;8.07;;
4049;SDS011;2039;50.894;6.888;2023-11-21T04:20:24;40.10;;;10.37;;
4049;SDS011;2039;50.894;6.888;2023-11-21T04:22:50;37.10;;;9.40;;
4049;SDS011;2039;50.894;6.888;2023-11-21T04:25:16;37.93;;;9.83;;
4049;SDS011;2039;50.894;6.888;2023-11-21T04:27:42;36.57;;;8.93;;
4049;SDS011;2039;50.894;6.888;2023-11-21T04:30:09;38.63;;;9.77;;
4049;SDS011;2039;50.894;6.888;2023-11-21T04:32:36;35.22;;;9.95;;
4049;SDS011;2039;50.894;6.888;2023-11-21T04:35:02;32.30;;;7.50;;
4049;SDS011;2039;50.894;6.888;2023-11-21T04:37:29;38.53;;;9.77;;
4049;SDS011;2039;50.894;6.888;2023-11-21T04:39:55;38.17;;;8.70;;
4049;SDS011;2039;50.894;6.888;2023-11-21T04:42:20;35.67;;;8.70;;
4049;SDS011;2039;50.894;6.888;2023-11-21T04:44:46;33.92;;;8.35;;
4049;SDS011;2039;50.894;6.888;2023-11-21T04:47:12;35.60;;;9.90;;
4049;SDS011;2039;50.894;6.888;2023-11-21T04:49:39;33.30;;;8.60;;
4049;SDS011;2039;50.894;6.888;2023-11-21T04:52:07;38.05;;;8.65;;
4049;SDS011;2039;50.894;6.888;2023-11-21T04:54:34;34.60;;;8.07;;
4049;SDS011;2039;50.894;6.888;2023-11-21T04:57:00;34.78;;;9.77;;
4049;SDS011;2039;50.894;6.888;2023-11-21T04:59:26;32.10;;;7.87;;
4049;SDS011;2039;50.894;6.888;2023-11-21T05:01:52;34.37;;;8.20;;
4049;SDS011;2039;50.894;6.888;2023-11-21T05:04:19;38.05;;;10.90;;
4049;SDS011;2039;50.894;6.888;2023-11-21T05:06:45;37.65;;;9.60;;
4049;SDS011;2039;50.894;6.888;2023-11-21T05:09:11;36.33;;;9.10;;
4049;SDS011;2039;50.894;6.888;2023-11-21T05:11:37;36.70;;;9.10;;
4049;SDS011;2039;50.894;6.888;2023-11-21T05:14:04;37.40;;;9.57;;
4049;SDS011;2039;50.894;6.888;2023-11-21T05:16:30;33.13;;;8.30;;
4049;SDS011;2039;50.894;6.888;2023-11-21T05:18:56;38.80;;;10.43;;
4049;SDS011;2039;50.894;6.888;2023-11-21T05:21:28;38.22;;;10.25;;
4049;SDS011;2039;50.894;6.888;2023-11-21T05:23:57;44.83;;;10.43;;
4049;SDS011;2039;50.894;6.888;2023-11-21T05:26:22;34.90;;;9.03;;
4049;SDS011;2039;50.894;6.888;2023-11-21T05:28:48;37.77;;;9.67;;
4049;SDS011;2039;50.894;6.888;2023-11-21T05:31:14;35.73;;;8.93;;
4049;SDS011;2039;50.894;6.888;2023-11-21T05:33:40;39.30;;;10.23;;
4049;SDS011;2039;50.894;6.888;2023-11-21T05:36:09;36.78;;;9.20;;
4049;SDS011;2039;50.894;6.888;2023-11-21T05:38:35;37.35;;;9.02;;
4049;SDS011;2039;50.894;6.888;2023-11-21T05:41:01;36.78;;;9.35;;
4049;SDS011;2039;50.894;6.888;2023-11-21T05:43:28;33.63;;;8.32;;
4049;SDS011;2039;50.894;6.888;2023-11-21T05:45:55;36.95;;;10.50;;
4049;SDS011;2039;50.894;6.888;2023-11-21T05:48:21;38.23;;;9.07;;
4049;SDS011;2039;50.894;6.888;2023-11-21T05:50:47;35.37;;;8.67;;
4049;SDS011;2039;50.894;6.888;2023-11-21T05:53:14;37.65;;;9.43;;
4049;SDS011;2039;50.894;6.888;2023-11-21T05:55:41;39.17;;;10.15;;
4049;SDS011;2039;50.894;6.888;2023-11-21T05:58:07;36.25;;;10.80;;
4049;SDS011;2039;50.894;6.888;2023-11-21T06:00:32;37.10;;;11.27;;
4049;SDS011;2039;50.894;6.888;2023-11-21T06:02:58;40.90;;;10.93;;
4049;SDS011;2039;50.894;6.888;2023-11-21T06:05:25;38.40;;;10.57;;
4049;SDS011;2039;50.894;6.888;2023-11-21T06:07:51;37.83;;;10.73;;
4049;SDS011;2039;50.894;6.888;2023-11-21T06:10:24;34.42;;;9.43;;
4049;SDS011;2039;50.894;6.888;2023-11-21T06:12:50;41.28;;;10.55;;
4049;SDS011;2039;50.894;6.888;2023-11-21T06:15:16;38.38;;;11.02;;
4049;SDS011;2039;50.894;6.888;2023-11-21T06:17:44;38.17;;;10.88;;
4049;SDS011;2039;50.894;6.888;2023-11-21T06:20:14;41.33;;;11.60;;
4049;SDS011;2039;50.894;6.888;2023-11-21T06:22:41;39.78;;;11.70;;
4049;SDS011;2039;50.894;6.888;2023-11-21T06:25:07;39.05;;;12.40;;
4049;SDS011;2039;50.894;6.888;2023-11-21T06:27:43;38.42;;;11.63;;
4049;SDS011;2039;50.894;6.888;2023-11-21T06:30:13;41.97;;;13.18;;
4049;SDS011;2039;50.894;6.888;2023-11-21T06:32:40;41.53;;;12.63;;
4049;SDS011;2039;50.894;6.888;2023-11-21T06:35:07;41.92;;;13.10;;
4049;SDS011;2039;50.894;6.888;2023-11-21T06:37:35;41.40;;;11.68;;
4049;SDS011;2039;50.894;6.888;2023-11-21T06:40:01;43.03;;;12.13;;
4049;SDS011;2039;50.894;6.888;2023-11-21T06:42:29;41.67;;;11.40;;
4049;SDS011;2039;50.894;6.888;2023-11-21T06:44:55;42.43;;;12.23;;
4049;SDS011;2039;50.894;6.888;2023-11-21T06:47:24;40.45;;;13.20;;
4049;SDS011;2039;50.894;6.888;2023-11-21T06:49:50;40.95;;;12.50;;
4049;SDS011;2039;50.894;6.888;2023-11-21T06:52:17;41.78;;;12.52;;
4049;SDS011;2039;50.894;6.888;2023-11-21T06:54:43;42.90;;;12.32;;
4049;SDS011;2039;50.894;6.888;2023-11-21T06:57:13;49.38;;;12.82;;
4049;SDS011;2039;50.894;6.888;2023-11-21T06:59:38;37.03;;;11.57;;
4049;SDS011;2039;50.894;6.888;2023-11-21T07:02:04;44.57;;;12.37;;
4049;SDS011;2039;50.894;6.888;2023-11-21T07:04:34;40.40;;;11.52;;
4049;SDS011;2039;50.894;6.888;2023-11-21T07:07:03;41.15;;;12.98;;
4049;SDS011;2039;50.894;6.888;2023-11-21T07:09:29;44.33;;;13.35;;
4049;SDS011;2039;50.894;6.888;2023-11-21T07:11:56;44.53;;;13.57;;
4049;SDS011;2039;50.894;6.888;2023-11-21T07:14:22;42.90;;;12.93;;
4049;SDS011;2039;50.894;6.888;2023-11-21T07:16:48;45.20;;;12.53;;
4049;SDS011;2039;50.894;6.888;2023-11-21T07:19:14;43.93;;;13.27;;
4049;SDS011;2039;50.894;6.888;2023-11-21T07:21:39;42.07;;;12.93;;
4049;SDS011;2039;50.894;6.888;2023-11-21T07:24:06;41.13;;;12.80;;
4049;SDS011;2039;50.894;6.888;2023-11-21T07:26:33;40.88;;;13.73;;
4049;SDS011;2039;50.894;6.888;2023-11-21T07:28:59;44.10;;;13.75;;
4049;SDS011;2039;50.894;6.888;2023-11-21T07:31:26;42.53;;;14.10;;
4049;SDS011;2039;50.894;6.888;2023-11-21T07:33:52;42.57;;;14.27;;
4049;SDS011;2039;50.894;6.888;2023-11-21T07:36:18;44.20;;;14.60;;
4049;SDS011;2039;50.894;6.888;2023-11-21T07:38:45;47.95;;;14.65;;
4049;SDS011;2039;50.894;6.888;2023-11-21T07:41:11;46.13;;;14.43;;
4049;SDS011;2039;50.894;6.888;2023-11-21T07:43:40;44.10;;;13.35;;
4049;SDS011;2039;50.894;6.888;2023-11-21T07:46:06;44.30;;;13.50;;
4049;SDS011;2039;50.894;6.888;2023-11-21T07:48:33;48.08;;;14.27;;
4049;SDS011;2039;50.894;6.888;2023-11-21T07:51:00;51.80;;;15.60;;
4049;SDS011;2039;50.894;6.888;2023-11-21T07:53:28;45.72;;;14.98;;
4049;SDS011;2039;50.894;6.888;2023-11-21T07:55:55;44.45;;;13.82;;
4049;SDS011;2039;50.894;6.888;2023-11-21T07:58:21;46.13;;;15.65;;
4049;SDS011;2039;50.894;6.888;2023-11-21T08:00:46;50.03;;;15.00;;
4049;SDS011;2039;50.894;6.888;2023-11-21T08:03:16;44.63;;;14.30;;
4049;SDS011;2039;50.894;6.888;2023-11-21T08:05:42;45.05;;;15.57;;
4049;SDS011;2039;50.894;6.888;2023-11-21T08:08:08;48.63;;;14.65;;
4049;SDS011;2039;50.894;6.888;2023-11-21T08:10:37;50.17;;;15.70;;
4049;SDS011;2039;50.894;6.888;2023-11-21T08:13:04;48.45;;;15.38;;
4049;SDS011;2039;50.894;6.888;2023-11-21T08:15:30;55.55;;;15.95;;
4049;SDS011;2039;50.894;6.888;2023-11-21T08:17:58;48.08;;;15.27;;
4049;SDS011;2039;50.894;6.888;2023-11-21T08:20:24;45.00;;;14.70;;
4049;SDS011;2039;50.894;6.888;2023-11-21T08:22:50;52.90;;;16.57;;
4049;SDS011;2039;50.894;6.888;2023-11-21T08:25:17;50.35;;;16.50;;
4049;SDS011;2039;50.894;6.888;2023-11-21T08:27:45;50.63;;;16.27;;
4049;SDS011;2039;50.894;6.888;2023-11-21T08:30:11;51.35;;;17.73;;
4049;SDS011;2039;50.894;6.888;2023-11-21T08:32:39;42.50;;;14.63;;
4049;SDS011;2039;50.894;6.888;2023-11-21T08:35:06;46.67;;;16.25;;
4049;SDS011;2039;50.894;6.888;2023-11-21T08:37:32;48.58;;;15.10;;
4049;SDS011;2039;50.894;6.888;2023-11-21T08:40:02;47.00;;;14.98;;
4049;SDS011;2039;50.894;6.888;2023-11-21T08:42:34;48.90;;;17.38;;
4049;SDS011;2039;50.894;6.888;2023-11-21T08:45:00;48.40;;;15.05;;
4049;SDS011;2039;50.894;6.888;2023-11-21T08:47:26;51.30;;;17.67;;
4049;SDS011;2039;50.894;6.888;2023-11-21T08:49:52;45.83;;;15.63;;
4049;SDS011;2039;50.894;6.888;2023-11-21T08:52:18;48.67;;;16.30;;
4049;SDS011;2039;50.894;6.888;2023-11-21T08:54:47;47.63;;;15.63;;
4049;SDS011;2039;50.894;6.888;2023-11-21T08:57:13;46.13;;;15.13;;
4049;SDS011;2039;50.894;6.888;2023-11-21T08:59:39;45.07;;;15.03;;
4049;SDS011;2039;50.894;6.888;2023-11-21T09:02:05;55.17;;;17.50;;
4049;SDS011;2039;50.894;6.888;2023-11-21T09:04:31;45.40;;;14.70;;
4049;SDS011;2039;50.894;6.888;2023-11-21T09:06:56;55.20;;;15.70;;
4049;SDS011;2039;50.894;6.888;2023-11-21T09:09:25;53.20;;;15.85;;
4049;SDS011;2039;50.894;6.888;2023-11-21T09:11:50;46.57;;;14.83;;
4049;SDS011;2039;50.894;6.888;2023-11-21T09:14:16;54.27;;;16.40;;
4049;SDS011;2039;50.894;6.888;2023-11-21T09:16:42;58.17;;;17.52;;
4049;SDS011;2039;50.894;6.888;2023-11-21T09:19:08;50.70;;;16.17;;
4049;SDS011;2039;50.894;6.888;2023-11-21T09:21:34;57.17;;;18.10;;
4049;SDS011;2039;50.894;6.888;2023-11-21T09:24:03;44.45;;;15.50;;
4049;SDS011;2039;50.894;6.888;2023-11-21T09:26:29;45.28;;;15.27;;
4049;SDS011;2039;50.894;6.888;2023-11-21T09:28:55;51.90;;;16.10;;
4049;SDS011;2039;50.894;6.888;2023-11-21T09:31:21;55.83;;;18.60;;
4049;SDS011;2039;50.894;6.888;2023-11-21T09:33:49;59.67;;;17.33;;
4049;SDS011;2039;50.894;6.888;2023-11-21T09:36:15;53.23;;;16.33;;
4049;SDS011;2039;50.894;6.888;2023-11-21T09:38:40;48.73;;;16.60;;
4049;SDS011;2039;50.894;6.888;2023-11-21T09:41:11;49.05;;;16.73;;
4049;SDS011;2039;50.894;6.888;2023-11-21T09:43:46;53.10;;;16.48;;
4049;SDS011;2039;50.894;6.888;2023-11-21T09:46:14;53.25;;;15.93;;
4049;SDS011;2039;50.894;6.888;2023-11-21T09:48:46;53.58;;;16.80;;
4049;SDS011;2039;50.894;6.888;2023-11-21T09:51:15;49.05;;;16.45;;
4049;SDS011;2039;50.894;6.888;2023-11-21T09:53:45;56.00;;;16.55;;
4049;SDS011;2039;50.894;6.888;2023-11-21T09:56:18;46.83;;;16.17;;
4049;SDS011;2039;50.894;6.888;2023-11-21T09:58:52;49.95;;;15.50;;
4049;SDS011;2039;50.894;6.888;2023-11-21T10:01:31;53.25;;;14.55;;
4049;SDS011;2039;50.894;6.888;2023-11-21T10:04:19;46.50;;;15.90;;
4049;SDS011;2039;50.894;6.888;2023-11-21T10:06:51;50.60;;;16.40;;
4049;SDS011;2039;50.894;6.888;2023-11-21T10:09:20;54.10;;;16.23;;
4049;SDS011;2039;50.894;6.888;2023-11-21T10:11:48;45.83;;;15.13;;
4049;SDS011;2039;50.894;6.888;2023-11-21T10:14:16;53.30;;;17.42;;
4049;SDS011;2039;50.894;6.888;2023-11-21T10:16:47;52.80;;;17.13;;
4049;SDS011;2039;50.894;6.888;2023-11-21T10:19:13;59.15;;;16.48;;
4049;SDS011;2039;50.894;6.888;2023-11-21T10:21:41;53.53;;;17.05;;
4049;SDS011;2039;50.894;6.888;2023-11-21T10:24:07;48.28;;;15.88;;
4049;SDS011;2039;50.894;6.888;2023-11-21T10:26:36;44.37;;;13.90;;
4049;SDS011;2039;50.894;6.888;2023-11-21T10:29:02;48.60;;;16.02;;
4049;SDS011;2039;50.894;6.888;2023-11-21T10:31:29;50.78;;;14.10;;
4049;SDS011;2039;50.894;6.888;2023-11-21T10:34:15;46.90;;;14.40;;
4049;SDS011;2039;50.894;6.888;2023-11-21T10:36:52;57.50;;;17.60;;
4049;SDS011;2039;50.894;6.888;2023-11-21T10:39:26;50.60;;;15.82;;
4049;SDS011;2039;50.894;6.888;2023-11-21T10:41:56;58.20;;;16.40;;
4049;SDS011;2039;50.894;6.888;2023-11-21T10:44:22;48.17;;;15.80;;
4049;SDS011;2039;50.894;6.888;2023-11-21T10:46:57;57.10;;;18.73;;
4049;SDS011;2039;50.894;6.888;2023-11-21T10:49:26;52.97;;;17.02;;
4049;SDS011;2039;50.894;6.888;2023-11-21T10:51:55;52.65;;;17.52;;
4049;SDS011;2039;50.894;6.888;2023-11-21T10:54:30;51.45;;;19.35;;
4049;SDS011;2039;50.894;6.888;2023-11-21T10:56:56;64.10;;;19.10;;
4049;SDS011;2039;50.894;6.888;2023-11-21T10:59:29;59.95;;;20.17;;
4049;SDS011;2039;50.894;6.888;2023-11-21T11:01:57;65.93;;;19.40;;
4049;SDS011;2039;50.894;6.888;2023-11-21T11:04:28;54.13;;;19.38;;
4049;SDS011;2039;50.894;6.888;2023-11-21T11:07:02;49.78;;;15.75;;
4049;SDS011;2039;50.894;6.888;2023-11-21T11:09:51;49.95;;;14.95;;
4049;SDS011;2039;50.894;6.888;2023-11-21T11:12:24;50.60;;;15.20;;
4049;SDS011;2039;50.894;6.888;2023-11-21T11:15:03;54.08;;;17.25;;
4049;SDS011;2039;50.894;6.888;2023-11-21T11:17:36;46.90;;;14.15;;
4049;SDS011;2039;50.894;6.888;2023-11-21T11:20:08;46.00;;;14.90;;
4049;SDS011;2039;50.894;6.888;2023-11-21T11:25:57;47.15;;;13.93;;
4049;SDS011;2039;50.894;6.888;2023-11-21T11:28:51;45.17;;;13.10;;
4049;SDS011;2039;50.894;6.888;2023-11-21T11:37:57;44.25;;;13.77;;
4049;SDS011;2039;50.894;6.888;2023-11-21T11:40:25;49.42;;;12.57;;
4049;SDS011;2039;50.894;6.888;2023-11-21T11:43:16;47.22;;;13.20;;
4049;SDS011;2039;50.894;6.888;2023-11-21T11:46:08;41.20;;;11.40;;
4049;SDS011;2039;50.894;6.888;2023-11-21T11:48:35;45.42;;;12.70;;
4049;SDS011;2039;50.894;6.888;2023-11-21T11:51:06;56.25;;;13.77;;
4049;SDS011;2039;50.894;6.888;2023-11-21T11:53:35;52.40;;;13.40;;
4049;SDS011;2039;50.894;6.888;2023-11-21T11:56:21;56.13;;;14.20;;
4049;SDS011;2039;50.894;6.888;2023-11-21T11:58:56;53.67;;;15.13;;
4049;SDS011;2039;50.894;6.888;2023-11-21T12:01:25;46.35;;;14.35;;
4049;SDS011;2039;50.894;6.888;2023-11-21T12:07:05;45.95;;;15.07;;
4049;SDS011;2039;50.894;6.888;2023-11-21T12:09:34;56.65;;;15.25;;
4049;SDS011;2039;50.894;6.888;2023-11-21T12:12:01;51.20;;;15.60;;
4049;SDS011;2039;50.894;6.888;2023-11-21T12:14:36;44.87;;;12.27;;
4049;SDS011;2039;50.894;6.888;2023-11-21T12:17:10;50.90;;;13.68;;
4049;SDS011;2039;50.894;6.888;2023-11-21T12:19:41;46.75;;;13.07;;
4049;SDS011;2039;50.894;6.888;2023-11-21T12:22:08;49.50;;;14.45;;
4049;SDS011;2039;50.894;6.888;2023-11-21T12:24:37;51.67;;;14.87;;
4049;SDS011;2039;50.894;6.888;2023-11-21T12:27:03;47.60;;;13.98;;
4049;SDS011;2039;50.894;6.888;2023-11-21T12:29:32;51.45;;;15.32;;
4049;SDS011;2039;50.894;6.888;2023-11-21T12:32:09;49.40;;;15.13;;
4049;SDS011;2039;50.894;6.888;2023-11-21T12:34:40;46.60;;;13.95;;
4049;SDS011;2039;50.894;6.888;2023-11-21T12:37:08;44.72;;;12.23;;
4049;SDS011;2039;50.894;6.888;2023-11-21T12:39:35;45.47;;;13.27;;
4049;SDS011;2039;50.894;6.888;2023-11-21T12:42:07;46.90;;;12.30;;
4049;SDS011;2039;50.894;6.888;2023-11-21T12:44:42;48.85;;;12.30;;
4049;SDS011;2039;50.894;6.888;2023-11-21T12:47:15;47.30;;;11.82;;
4049;SDS011;2039;50.894;6.888;2023-11-21T12:49:53;40.70;;;10.48;;
4049;SDS011;2039;50.894;6.888;2023-11-21T12:52:24;44.03;;;10.18;;
4049;SDS011;2039;50.894;6.888;2023-11-21T12:54:58;40.55;;;9.85;;
4049;SDS011;2039;50.894;6.888;2023-11-21T12:57:27;49.38;;;11.55;;
4049;SDS011;2039;50.894;6.888;2023-11-21T13:00:05;43.45;;;10.10;;
4049;SDS011;2039;50.894;6.888;2023-11-21T13:02:41;48.45;;;11.30;;
4049;SDS011;2039;50.894;6.888;2023-11-21T13:05:13;44.58;;;10.40;;
4049;SDS011;2039;50.894;6.888;2023-11-21T13:07:53;40.85;;;10.48;;
4049;SDS011;2039;50.894;6.888;2023-11-21T13:10:25;40.58;;;9.60;;
4049;SDS011;2039;50.894;6.888;2023-11-21T13:12:55;39.63;;;9.52;;
4049;SDS011;2039;50.894;6.888;2023-11-21T13:15:26;40.33;;;9.73;;
4049;SDS011;2039;50.894;6.888;2023-11-21T13:17:52;36.50;;;10.60;;
4049;SDS011;2039;50.894;6.888;2023-11-21T13:20:19;36.33;;;8.85;;
4049;SDS011;2039;50.894;6.888;2023-11-21T13:22:54;41.75;;;9.50;;
4049;SDS011;2039;50.894;6.888;2023-11-21T13:25:32;40.63;;;9.77;;
4049;SDS011;2039;50.894;6.888;2023-11-21T13:27:58;49.30;;;10.18;;
4049;SDS011;2039;50.894;6.888;2023-11-21T13:30:26;34.75;;;8.35;;
4049;SDS011;2039;50.894;6.888;2023-11-21T13:33:03;35.22;;;9.25;;
4049;SDS011;2039;50.894;6.888;2023-11-21T13:35:33;37.88;;;8.40;;
4049;SDS011;2039;50.894;6.888;2023-11-21T13:38:12;40.20;;;9.35;;
4049;SDS011;2039;50.894;6.888;2023-11-21T13:40:46;34.15;;;8.57;;
4049;SDS011;2039;50.894;6.888;2023-11-21T13:43:15;40.05;;;9.80;;
4049;SDS011;2039;50.894;6.888;2023-11-21T13:45:44;44.10;;;8.95;;
4049;SDS011;2039;50.894;6.888;2023-11-21T13:48:11;37.05;;;8.75;;
4049;SDS011;2039;50.894;6.888;2023-11-21T13:50:44;40.80;;;9.43;;
4049;SDS011;2039;50.894;6.888;2023-11-21T13:53:20;45.08;;;9.25;;
4049;SDS011;2039;50.894;6.888;2023-11-21T13:55:49;40.65;;;9.88;;
4049;SDS011;2039;50.894;6.888;2023-11-21T13:58:19;41.60;;;10.13;;
4049;SDS011;2039;50.894;6.888;2023-11-21T14:01:02;36.83;;;9.68;;
4049;SDS011;2039;50.894;6.888;2023-11-21T14:03:31;44.10;;;10.73;;
4049;SDS011;2039;50.894;6.888;2023-11-21T14:06:09;36.67;;;9.55;;
4049;SDS011;2039;50.894;6.888;2023-11-21T14:08:40;43.00;;;9.95;;
4049;SDS011;2039;50.894;6.888;2023-11-21T14:11:07;44.65;;;11.75;;
4049;SDS011;2039;50.894;6.888;2023-11-21T14:13:32;36.33;;;9.40;;
4049;SDS011;2039;50.894;6.888;2023-11-21T14:15:58;43.63;;;10.83;;
4049;SDS011;2039;50.894;6.888;2023-11-21T14:18:27;41.20;;;11.10;;
4049;SDS011;2039;50.894;6.888;2023-11-21T14:21:03;46.95;;;11.77;;
4049;SDS011;2039;50.894;6.888;2023-11-21T14:23:30;46.60;;;10.98;;
4049;SDS011;2039;50.894;6.888;2023-11-21T14:25:56;44.37;;;13.23;;
4049;SDS011;2039;50.894;6.888;2023-11-21T14:28:23;42.03;;;11.32;;
4049;SDS011;2039;50.894;6.888;2023-11-21T14:30:49;54.50;;;12.10;;
4049;SDS011;2039;50.894;6.888;2023-11-21T14:33:14;45.27;;;11.33;;
4049;SDS011;2039;50.894;6.888;2023-11-21T14:35:41;47.03;;;12.25;;
4049;SDS011;2039;50.894;6.888;2023-11-21T14:38:08;45.88;;;13.15;;
4049;SDS011;2039;50.894;6.888;2023-11-21T14:40:35;43.40;;;12.68;;
4049;SDS011;2039;50.894;6.888;2023-11-21T14:43:01;47.15;;;10.82;;
4049;SDS011;2039;50.894;6.888;2023-11-21T14:45:31;48.65;;;15.98;;
4049;SDS011;2039;50.894;6.888;2023-11-21T14:47:58;42.22;;;12.30;;
4049;SDS011;2039;50.894;6.888;2023-11-21T14:50:30;46.97;;;12.45;;
4049;SDS011;2039;50.894;6.888;2023-11-21T14:53:10;52.53;;;12.40;;
4049;SDS011;2039;50.894;6.888;2023-11-21T14:55:40;41.25;;;12.68;;
4049;SDS011;2039;50.894;6.888;2023-11-21T14:58:15;41.17;;;10.55;;
4049;SDS011;2039;50.894;6.888;2023-11-21T15:00:51;47.88;;;12.95;;
4049;SDS011;2039;50.894;6.888;2023-11-21T15:03:26;42.75;;;12.05;;
4049;SDS011;2039;50.894;6.888;2023-11-21T15:05:56;44.17;;;11.52;;
4049;SDS011;2039;50.894;6.888;2023-11-21T15:08:22;46.42;;;14.77;;
4049;SDS011;2039;50.894;6.888;2023-11-21T15:10:56;47.13;;;14.23;;
4049;SDS011;2039;50.894;6.888;2023-11-21T15:13:22;42.72;;;13.90;;